sensor_id;sensor_type;location;lat;lon;timestamp;temperature;humidity
354;DHT22;165;53.592;10.044;2022-11-20T00:00:43;2.90;99.90
354;DHT22;165;53.592;10.044;2022-11-20T00:03:09;2.90;99.90
354;DHT22;165;53.592;10.044;2022-11-20T00:05:34;2.80;99.90
354;DHT22;165;53.592;10.044;2022-11-20T00:08:00;2.90;99.90
354;DHT22;165;53.592;10.044;2022-11-20T00:10:25;2.90;99.90
354;DHT22;165;53.592;10.044;2022-11-20T00:12:51;2.90;99.90
354;DHT22;165;53.592;10.044;2022-11-20T00:15:17;2.90;99.90
354;DHT22;165;53.592;10.044;2022-11-20T00:17:42;2.90;99.90
354;DHT22;165;53.592;10.044;2022-11-20T00:20:08;2.80;99.90
354;DHT22;165;53.592;10.044;2022-11-20T00:22:34;2.80;99.90
354;DHT22;165;53.592;10.044;2022-11-20T00:25:00;2.90;99.90
354;DHT22;165;53.592;10.044;2022-11-20T00:27:25;2.90;99.90
354;DHT22;165;53.592;10.044;2022-11-20T00:29:51;2.80;99.90
354;DHT22;165;53.592;10.044;2022-11-20T00:32:16;2.80;99.90
354;DHT22;165;53.592;10.044;2022-11-20T00:34:42;2.80;99.90
354;DHT22;165;53.592;10.044;2022-11-20T00:37:07;2.70;99.90
354;DHT22;165;53.592;10.044;2022-11-20T00:39:33;2.70;99.90
354;DHT22;165;53.592;10.044;2022-11-20T00:41:58;2.70;99.90
354;DHT22;165;53.592;10.044;2022-11-20T00:44:24;2.60;99.90
354;DHT22;165;53.592;10.044;2022-11-20T00:46:49;2.70;99.90
354;DHT22;165;53.592;10.044;2022-11-20T00:49:15;2.60;99.90
354;DHT22;165;53.592;10.044;2022-11-20T00:51:40;2.60;99.90
354;DHT22;165;53.592;10.044;2022-11-20T00:54:06;2.60;99.90
354;DHT22;165;53.592;10.044;2022-11-20T00:56:31;2.60;99.90
354;DHT22;165;53.592;10.044;2022-11-20T00:58:59;2.70;99.90
354;DHT22;165;53.592;10.044;2022-11-20T01:01:25;2.70;99.90
354;DHT22;165;53.592;10.044;2022-11-20T01:03:53;2.60;99.90
354;DHT22;165;53.592;10.044;2022-11-20T01:06:20;2.70;99.90
354;DHT22;165;53.592;10.044;2022-11-20T01:08:47;2.70;99.90
354;DHT22;165;53.592;10.044;2022-11-20T01:11:15;2.70;99.90
354;DHT22;165;53.592;10.044;2022-11-20T01:13:42;2.80;99.90
354;DHT22;165;53.592;10.044;2022-11-20T01:16:17;2.70;99.90
354;DHT22;165;53.592;10.044;2022-11-20T01:18:45;2.60;99.90
354;DHT22;165;53.592;10.044;2022-11-20T01:21:16;2.70;99.90
354;DHT22;165;53.592;10.044;2022-11-20T01:23:42;2.70;99.90
354;DHT22;165;53.592;10.044;2022-11-20T01:26:12;2.80;99.90
354;DHT22;165;53.592;10.044;2022-11-20T01:28:40;2.80;99.90
354;DHT22;165;53.592;10.044;2022-11-20T01:31:17;2.80;99.90
354;DHT22;165;53.592;10.044;2022-11-20T01:33:44;2.80;99.90
354;DHT22;165;53.592;10.044;2022-11-20T01:36:11;2.70;99.90
354;DHT22;165;53.592;10.044;2022-11-20T01:38:36;2.70;99.90
354;DHT22;165;53.592;10.044;2022-11-20T01:41:02;2.70;99.90
354;DHT22;165;53.592;10.044;2022-11-20T01:43:28;2.70;99.90
354;DHT22;165;53.592;10.044;2022-11-20T01:48:40;2.70;99.90
354;DHT22;165;53.592;10.044;2022-11-20T01:51:16;2.70;99.90
354;DHT22;165;53.592;10.044;2022-11-20T01:53:42;2.60;99.90
354;DHT22;165;53.592;10.044;2022-11-20T01:56:10;2.70;99.90
354;DHT22;165;53.592;10.044;2022-11-20T01:58:41;2.70;99.90
354;DHT22;165;53.592;10.044;2022-11-20T02:01:08;2.70;99.90
354;DHT22;165;53.592;10.044;2022-11-20T02:03:34;2.60;99.90
354;DHT22;165;53.592;10.044;2022-11-20T02:06:29;2.70;99.90
354;DHT22;165;53.592;10.044;2022-11-20T02:08:55;2.70;99.90
354;DHT22;165;53.592;10.044;2022-11-20T02:11:21;2.70;99.90
354;DHT22;165;53.592;10.044;2022-11-20T02:13:47;2.70;99.90
354;DHT22;165;53.592;10.044;2022-11-20T02:16:25;2.70;99.90
354;DHT22;165;53.592;10.044;2022-11-20T02:18:51;2.70;99.90
354;DHT22;165;53.592;10.044;2022-11-20T02:26:28;2.70;99.90
354;DHT22;165;53.592;10.044;2022-11-20T02:28:55;2.60;99.90
354;DHT22;165;53.592;10.044;2022-11-20T02:31:20;2.60;99.90
354;DHT22;165;53.592;10.044;2022-11-20T02:33:46;2.60;99.90
354;DHT22;165;53.592;10.044;2022-11-20T02:36:14;2.60;99.90
354;DHT22;165;53.592;10.044;2022-11-20T02:38:41;2.60;99.90
354;DHT22;165;53.592;10.044;2022-11-20T02:41:08;2.60;99.90
354;DHT22;165;53.592;10.044;2022-11-20T02:43:33;2.60;99.90
354;DHT22;165;53.592;10.044;2022-11-20T02:45:59;2.60;99.90
354;DHT22;165;53.592;10.044;2022-11-20T02:48:24;2.60;99.90
354;DHT22;165;53.592;10.044;2022-11-20T02:50:50;2.60;99.90
354;DHT22;165;53.592;10.044;2022-11-20T02:53:15;2.60;99.90
354;DHT22;165;53.592;10.044;2022-11-20T02:55:41;2.60;99.90
354;DHT22;165;53.592;10.044;2022-11-20T03:02:02;2.60;99.90
354;DHT22;165;53.592;10.044;2022-11-20T03:04:28;2.50;99.90
354;DHT22;165;53.592;10.044;2022-11-20T03:06:53;2.50;99.90
354;DHT22;165;53.592;10.044;2022-11-20T03:09:18;2.50;99.90
354;DHT22;165;53.592;10.044;2022-11-20T03:11:44;2.50;99.90
354;DHT22;165;53.592;10.044;2022-11-20T03:14:09;2.60;99.90
354;DHT22;165;53.592;10.044;2022-11-20T03:16:35;2.60;99.90
354;DHT22;165;53.592;10.044;2022-11-20T03:19:00;2.60;99.90
354;DHT22;165;53.592;10.044;2022-11-20T03:21:26;2.50;99.90
354;DHT22;165;53.592;10.044;2022-11-20T03:23:53;2.60;99.90
354;DHT22;165;53.592;10.044;2022-11-20T03:26:21;2.60;99.90
354;DHT22;165;53.592;10.044;2022-11-20T03:28:50;2.50;99.90
354;DHT22;165;53.592;10.044;2022-11-20T03:31:18;2.50;99.90
354;DHT22;165;53.592;10.044;2022-11-20T03:33:44;2.50;99.90
354;DHT22;165;53.592;10.044;2022-11-20T03:36:11;2.60;99.90
354;DHT22;165;53.592;10.044;2022-11-20T03:38:38;2.60;99.90
354;DHT22;165;53.592;10.044;2022-11-20T03:41:09;2.60;99.90
354;DHT22;165;53.592;10.044;2022-11-20T03:43:35;2.60;99.90
354;DHT22;165;53.592;10.044;2022-11-20T03:46:01;2.60;99.90
354;DHT22;165;53.592;10.044;2022-11-20T03:48:27;2.60;99.90
354;DHT22;165;53.592;10.044;2022-11-20T03:54:15;2.60;99.90
354;DHT22;165;53.592;10.044;2022-11-20T03:56:40;2.60;99.90
354;DHT22;165;53.592;10.044;2022-11-20T03:59:06;2.60;99.90
354;DHT22;165;53.592;10.044;2022-11-20T04:01:34;2.60;99.90
354;DHT22;165;53.592;10.044;2022-11-20T04:04:00;2.60;99.90
354;DHT22;165;53.592;10.044;2022-11-20T04:06:35;2.60;99.90
354;DHT22;165;53.592;10.044;2022-11-20T04:09:01;2.60;99.90
354;DHT22;165;53.592;10.044;2022-11-20T04:11:31;2.60;99.90
354;DHT22;165;53.592;10.044;2022-11-20T04:13:59;2.50;99.90
354;DHT22;165;53.592;10.044;2022-11-20T04:23:50;2.50;99.90
354;DHT22;165;53.592;10.044;2022-11-20T04:39:47;2.40;99.90
354;DHT22;165;53.592;10.044;2022-11-20T04:42:13;2.40;99.90
354;DHT22;165;53.592;10.044;2022-11-20T04:44:54;2.40;99.90
354;DHT22;165;53.592;10.044;2022-11-20T04:47:20;2.40;99.90
354;DHT22;165;53.592;10.044;2022-11-20T04:49:46;2.30;99.90
354;DHT22;165;53.592;10.044;2022-11-20T04:55:33;2.40;99.90
354;DHT22;165;53.592;10.044;2022-11-20T04:57:59;2.40;99.90
354;DHT22;165;53.592;10.044;2022-11-20T05:10:31;2.30;99.90
354;DHT22;165;53.592;10.044;2022-11-20T05:12:57;2.40;99.90
354;DHT22;165;53.592;10.044;2022-11-20T05:35:25;2.30;99.90
354;DHT22;165;53.592;10.044;2022-11-20T05:37:50;2.30;99.90
354;DHT22;165;53.592;10.044;2022-11-20T05:40:16;2.30;99.90
354;DHT22;165;53.592;10.044;2022-11-20T05:46:04;2.30;99.90
354;DHT22;165;53.592;10.044;2022-11-20T05:52:30;2.30;99.90
354;DHT22;165;53.592;10.044;2022-11-20T05:54:56;2.30;99.90
354;DHT22;165;53.592;10.044;2022-11-20T06:00:43;2.20;99.90
354;DHT22;165;53.592;10.044;2022-11-20T06:03:08;2.20;99.90
354;DHT22;165;53.592;10.044;2022-11-20T06:12:17;2.20;99.90
354;DHT22;165;53.592;10.044;2022-11-20T06:14:42;2.20;99.90
354;DHT22;165;53.592;10.044;2022-11-20T06:17:08;2.30;99.90
354;DHT22;165;53.592;10.044;2022-11-20T06:22:56;2.30;99.90
354;DHT22;165;53.592;10.044;2022-11-20T06:25:21;2.20;99.90
354;DHT22;165;53.592;10.044;2022-11-20T06:27:47;2.30;99.90
354;DHT22;165;53.592;10.044;2022-11-20T06:30:12;2.30;99.90
354;DHT22;165;53.592;10.044;2022-11-20T06:32:38;2.30;99.90
354;DHT22;165;53.592;10.044;2022-11-20T06:35:04;2.30;99.90
354;DHT22;165;53.592;10.044;2022-11-20T06:37:29;2.20;99.90
354;DHT22;165;53.592;10.044;2022-11-20T06:39:55;2.20;99.90
354;DHT22;165;53.592;10.044;2022-11-20T06:42:20;2.20;99.90
354;DHT22;165;53.592;10.044;2022-11-20T06:44:45;2.20;99.90
354;DHT22;165;53.592;10.044;2022-11-20T06:47:11;2.10;99.90
354;DHT22;165;53.592;10.044;2022-11-20T06:49:36;2.20;99.90
354;DHT22;165;53.592;10.044;2022-11-20T06:52:04;2.10;99.90
354;DHT22;165;53.592;10.044;2022-11-20T06:54:29;2.10;99.90
354;DHT22;165;53.592;10.044;2022-11-20T06:56:55;2.10;99.90
354;DHT22;165;53.592;10.044;2022-11-20T06:59:20;2.00;99.90
354;DHT22;165;53.592;10.044;2022-11-20T07:01:46;2.00;99.90
354;DHT22;165;53.592;10.044;2022-11-20T07:04:12;2.00;99.90
354;DHT22;165;53.592;10.044;2022-11-20T07:06:37;2.00;99.90
354;DHT22;165;53.592;10.044;2022-11-20T07:09:03;2.00;99.90
354;DHT22;165;53.592;10.044;2022-11-20T07:11:28;2.00;99.90
354;DHT22;165;53.592;10.044;2022-11-20T07:13:54;2.00;99.90
354;DHT22;165;53.592;10.044;2022-11-20T07:16:19;2.00;99.90
354;DHT22;165;53.592;10.044;2022-11-20T07:18:45;2.10;99.90
354;DHT22;165;53.592;10.044;2022-11-20T07:21:10;2.10;99.90
354;DHT22;165;53.592;10.044;2022-11-20T07:23:36;2.10;99.90
354;DHT22;165;53.592;10.044;2022-11-20T07:26:06;2.10;99.90
354;DHT22;165;53.592;10.044;2022-11-20T07:28:33;2.10;99.90
354;DHT22;165;53.592;10.044;2022-11-20T07:30:58;2.10;99.90
354;DHT22;165;53.592;10.044;2022-11-20T07:33:24;2.00;99.90
354;DHT22;165;53.592;10.044;2022-11-20T07:35:50;2.10;99.90
354;DHT22;165;53.592;10.044;2022-11-20T07:38:15;2.10;99.90
354;DHT22;165;53.592;10.044;2022-11-20T07:40:41;2.20;99.90
354;DHT22;165;53.592;10.044;2022-11-20T07:43:06;2.20;99.90
354;DHT22;165;53.592;10.044;2022-11-20T07:45:32;2.30;99.90
354;DHT22;165;53.592;10.044;2022-11-20T07:47:57;2.30;99.90
354;DHT22;165;53.592;10.044;2022-11-20T07:50:23;2.30;99.90
354;DHT22;165;53.592;10.044;2022-11-20T07:52:48;2.40;99.90
354;DHT22;165;53.592;10.044;2022-11-20T07:55:14;2.50;99.90
354;DHT22;165;53.592;10.044;2022-11-20T07:57:40;2.60;99.90
354;DHT22;165;53.592;10.044;2022-11-20T08:00:08;2.60;99.90
354;DHT22;165;53.592;10.044;2022-11-20T08:02:43;2.70;99.90
354;DHT22;165;53.592;10.044;2022-11-20T08:05:09;2.70;99.90
354;DHT22;165;53.592;10.044;2022-11-20T08:07:39;2.70;99.90
354;DHT22;165;53.592;10.044;2022-11-20T08:10:07;2.80;99.90
354;DHT22;165;53.592;10.044;2022-11-20T08:12:33;2.80;99.90
354;DHT22;165;53.592;10.044;2022-11-20T08:15:17;2.90;99.90
354;DHT22;165;53.592;10.044;2022-11-20T08:17:42;2.90;99.90
354;DHT22;165;53.592;10.044;2022-11-20T08:20:08;3.00;99.90
354;DHT22;165;53.592;10.044;2022-11-20T08:22:34;3.00;99.90
354;DHT22;165;53.592;10.044;2022-11-20T08:25:00;2.90;99.90
354;DHT22;165;53.592;10.044;2022-11-20T08:27:25;3.00;99.90
354;DHT22;165;53.592;10.044;2022-11-20T08:29:51;3.10;99.90
354;DHT22;165;53.592;10.044;2022-11-20T08:32:16;3.10;99.90
354;DHT22;165;53.592;10.044;2022-11-20T08:34:41;3.10;99.90
354;DHT22;165;53.592;10.044;2022-11-20T08:37:07;3.20;99.90
354;DHT22;165;53.592;10.044;2022-11-20T08:39:32;3.20;99.90
354;DHT22;165;53.592;10.044;2022-11-20T08:41:58;3.20;99.90
354;DHT22;165;53.592;10.044;2022-11-20T08:44:24;3.20;99.90
354;DHT22;165;53.592;10.044;2022-11-20T08:46:49;3.20;99.90
354;DHT22;165;53.592;10.044;2022-11-20T08:49:15;3.40;99.90
354;DHT22;165;53.592;10.044;2022-11-20T08:51:42;3.60;99.90
354;DHT22;165;53.592;10.044;2022-11-20T08:54:08;3.80;99.90
354;DHT22;165;53.592;10.044;2022-11-20T08:56:34;3.80;99.90
354;DHT22;165;53.592;10.044;2022-11-20T08:58:59;3.90;99.90
354;DHT22;165;53.592;10.044;2022-11-20T09:01:26;3.90;99.90
354;DHT22;165;53.592;10.044;2022-11-20T09:03:51;3.90;99.90
354;DHT22;165;53.592;10.044;2022-11-20T09:06:17;3.80;99.90
354;DHT22;165;53.592;10.044;2022-11-20T09:08:42;3.60;99.90
354;DHT22;165;53.592;10.044;2022-11-20T09:11:08;3.40;99.90
354;DHT22;165;53.592;10.044;2022-11-20T09:13:35;3.10;99.90
354;DHT22;165;53.592;10.044;2022-11-20T09:16:07;3.10;99.90
354;DHT22;165;53.592;10.044;2022-11-20T09:18:34;2.90;99.90
354;DHT22;165;53.592;10.044;2022-11-20T09:21:04;2.90;99.90
354;DHT22;165;53.592;10.044;2022-11-20T09:23:35;2.90;99.90
354;DHT22;165;53.592;10.044;2022-11-20T09:26:09;2.90;99.90
354;DHT22;165;53.592;10.044;2022-11-20T09:28:35;3.00;99.90
354;DHT22;165;53.592;10.044;2022-11-20T09:31:05;3.00;99.90
354;DHT22;165;53.592;10.044;2022-11-20T09:33:31;3.10;99.90
354;DHT22;165;53.592;10.044;2022-11-20T09:35:56;3.20;99.90
354;DHT22;165;53.592;10.044;2022-11-20T09:38:22;3.30;99.90
354;DHT22;165;53.592;10.044;2022-11-20T09:40:58;3.40;99.90
354;DHT22;165;53.592;10.044;2022-11-20T09:43:41;3.50;99.90
354;DHT22;165;53.592;10.044;2022-11-20T09:46:27;3.50;99.90
354;DHT22;165;53.592;10.044;2022-11-20T09:49:14;3.60;99.90
354;DHT22;165;53.592;10.044;2022-11-20T09:51:53;3.80;99.90
354;DHT22;165;53.592;10.044;2022-11-20T09:54:27;4.10;99.90
354;DHT22;165;53.592;10.044;2022-11-20T09:56:59;4.30;99.90
354;DHT22;165;53.592;10.044;2022-11-20T09:59:36;4.40;99.90
354;DHT22;165;53.592;10.044;2022-11-20T10:02:58;4.40;99.90
354;DHT22;165;53.592;10.044;2022-11-20T10:08:01;4.20;99.90
354;DHT22;165;53.592;10.044;2022-11-20T10:10:43;4.20;99.90
354;DHT22;165;53.592;10.044;2022-11-20T10:13:30;4.30;99.90
354;DHT22;165;53.592;10.044;2022-11-20T10:16:03;4.50;99.90
354;DHT22;165;53.592;10.044;2022-11-20T10:24:24;4.60;99.90
354;DHT22;165;53.592;10.044;2022-11-20T10:30:10;4.00;99.90
354;DHT22;165;53.592;10.044;2022-11-20T10:33:39;3.90;99.90
354;DHT22;165;53.592;10.044;2022-11-20T10:35:34;3.90;99.90
354;DHT22;165;53.592;10.044;2022-11-20T10:38:07;3.80;99.90
354;DHT22;165;53.592;10.044;2022-11-20T10:40:38;3.90;99.90
354;DHT22;165;53.592;10.044;2022-11-20T10:43:19;4.10;99.90
354;DHT22;165;53.592;10.044;2022-11-20T10:48:25;4.70;99.90
354;DHT22;165;53.592;10.044;2022-11-20T10:56:38;5.70;99.90
354;DHT22;165;53.592;10.044;2022-11-20T11:02:01;5.10;99.90
354;DHT22;165;53.592;10.044;2022-11-20T11:04:49;4.80;99.90
354;DHT22;165;53.592;10.044;2022-11-20T11:07:25;4.70;99.90
354;DHT22;165;53.592;10.044;2022-11-20T11:09:54;4.50;99.90
354;DHT22;165;53.592;10.044;2022-11-20T11:12:21;4.40;99.90
354;DHT22;165;53.592;10.044;2022-11-20T11:14:53;4.30;99.90
354;DHT22;165;53.592;10.044;2022-11-20T11:17:31;4.30;99.90
354;DHT22;165;53.592;10.044;2022-11-20T11:20:05;4.20;99.90
354;DHT22;165;53.592;10.044;2022-11-20T11:22:34;4.40;99.90
354;DHT22;165;53.592;10.044;2022-11-20T11:25:09;4.30;99.90
354;DHT22;165;53.592;10.044;2022-11-20T11:27:47;4.30;99.90
354;DHT22;165;53.592;10.044;2022-11-20T11:30:15;4.20;99.90
354;DHT22;165;53.592;10.044;2022-11-20T11:32:41;4.20;99.90
354;DHT22;165;53.592;10.044;2022-11-20T11:35:24;4.10;99.90
354;DHT22;165;53.592;10.044;2022-11-20T11:38:10;4.10;99.90
354;DHT22;165;53.592;10.044;2022-11-20T11:40:40;4.20;99.90
354;DHT22;165;53.592;10.044;2022-11-20T11:43:16;4.20;99.90
354;DHT22;165;53.592;10.044;2022-11-20T11:46:02;4.30;99.90
354;DHT22;165;53.592;10.044;2022-11-20T11:48:29;4.30;99.90
354;DHT22;165;53.592;10.044;2022-11-20T11:50:54;4.30;99.90
354;DHT22;165;53.592;10.044;2022-11-20T11:53:24;4.30;99.90
354;DHT22;165;53.592;10.044;2022-11-20T11:56:09;4.40;99.90
354;DHT22;165;53.592;10.044;2022-11-20T11:58:52;4.40;99.90
354;DHT22;165;53.592;10.044;2022-11-20T12:01:36;4.30;99.90
354;DHT22;165;53.592;10.044;2022-11-20T12:04:21;4.30;99.90
354;DHT22;165;53.592;10.044;2022-11-20T12:06:58;4.30;99.90
354;DHT22;165;53.592;10.044;2022-11-20T12:09:35;4.20;99.90
354;DHT22;165;53.592;10.044;2022-11-20T12:15:11;4.30;99.90
354;DHT22;165;53.592;10.044;2022-11-20T12:17:42;4.40;99.90
354;DHT22;165;53.592;10.044;2022-11-20T12:20:13;4.40;99.90
354;DHT22;165;53.592;10.044;2022-11-20T12:23:01;4.50;99.90
354;DHT22;165;53.592;10.044;2022-11-20T12:25:36;4.50;99.90
354;DHT22;165;53.592;10.044;2022-11-20T12:39:02;4.80;99.90
354;DHT22;165;53.592;10.044;2022-11-20T12:44:52;4.80;99.90
354;DHT22;165;53.592;10.044;2022-11-20T12:48:38;4.90;99.90
354;DHT22;165;53.592;10.044;2022-11-20T12:59:44;4.70;99.90
354;DHT22;165;53.592;10.044;2022-11-20T13:07:21;4.50;99.90
354;DHT22;165;53.592;10.044;2022-11-20T13:09:49;4.50;99.90
354;DHT22;165;53.592;10.044;2022-11-20T13:12:32;4.50;99.90
354;DHT22;165;53.592;10.044;2022-11-20T13:15:17;4.50;99.90
354;DHT22;165;53.592;10.044;2022-11-20T13:17:50;4.50;99.90
354;DHT22;165;53.592;10.044;2022-11-20T13:20:18;4.60;99.90
354;DHT22;165;53.592;10.044;2022-11-20T13:22:52;4.60;99.90
354;DHT22;165;53.592;10.044;2022-11-20T13:27:54;4.80;99.90
354;DHT22;165;53.592;10.044;2022-11-20T13:30:25;4.80;99.90
354;DHT22;165;53.592;10.044;2022-11-20T13:32:53;4.90;99.90
354;DHT22;165;53.592;10.044;2022-11-20T13:35:42;4.80;99.90
354;DHT22;165;53.592;10.044;2022-11-20T13:38:13;4.90;99.90
354;DHT22;165;53.592;10.044;2022-11-20T13:40:57;4.90;99.90
354;DHT22;165;53.592;10.044;2022-11-20T13:46:09;4.80;99.90
354;DHT22;165;53.592;10.044;2022-11-20T13:48:40;4.60;99.90
354;DHT22;165;53.592;10.044;2022-11-20T13:51:23;4.60;99.90
354;DHT22;165;53.592;10.044;2022-11-20T13:59:44;4.50;99.90
354;DHT22;165;53.592;10.044;2022-11-20T14:02:14;4.50;99.90
354;DHT22;165;53.592;10.044;2022-11-20T14:04:52;4.50;99.90
354;DHT22;165;53.592;10.044;2022-11-20T14:07:21;4.40;99.90
354;DHT22;165;53.592;10.044;2022-11-20T14:09:55;4.40;99.90
354;DHT22;165;53.592;10.044;2022-11-20T14:12:27;4.40;99.90
354;DHT22;165;53.592;10.044;2022-11-20T14:14:53;4.40;99.90
354;DHT22;165;53.592;10.044;2022-11-20T14:17:30;4.40;99.90
354;DHT22;165;53.592;10.044;2022-11-20T14:20:00;4.20;99.90
354;DHT22;165;53.592;10.044;2022-11-20T14:22:28;4.20;99.90
354;DHT22;165;53.592;10.044;2022-11-20T14:27:40;4.10;99.90
354;DHT22;165;53.592;10.044;2022-11-20T14:30:14;4.00;99.90
354;DHT22;165;53.592;10.044;2022-11-20T14:32:42;3.90;99.90
354;DHT22;165;53.592;10.044;2022-11-20T14:35:10;3.90;99.90
354;DHT22;165;53.592;10.044;2022-11-20T14:37:39;3.90;99.90
354;DHT22;165;53.592;10.044;2022-11-20T14:40:26;3.90;99.90
354;DHT22;165;53.592;10.044;2022-11-20T14:42:52;3.80;99.90
354;DHT22;165;53.592;10.044;2022-11-20T14:45:19;3.90;99.90
354;DHT22;165;53.592;10.044;2022-11-20T14:47:46;3.90;99.90
354;DHT22;165;53.592;10.044;2022-11-20T14:50:20;3.90;99.90
354;DHT22;165;53.592;10.044;2022-11-20T14:52:56;3.90;99.90
354;DHT22;165;53.592;10.044;2022-11-20T14:55:25;3.80;99.90
354;DHT22;165;53.592;10.044;2022-11-20T14:57:57;3.70;99.90
354;DHT22;165;53.592;10.044;2022-11-20T15:00:23;3.60;99.90
354;DHT22;165;53.592;10.044;2022-11-20T15:02:50;3.60;99.90
354;DHT22;165;53.592;10.044;2022-11-20T15:05:18;3.60;99.90
354;DHT22;165;53.592;10.044;2022-11-20T15:07:47;3.50;99.90
354;DHT22;165;53.592;10.044;2022-11-20T15:10:27;3.50;99.90
354;DHT22;165;53.592;10.044;2022-11-20T15:13:11;3.50;99.90
354;DHT22;165;53.592;10.044;2022-11-20T15:15:49;3.50;99.90
354;DHT22;165;53.592;10.044;2022-11-20T15:18:18;3.60;99.90
354;DHT22;165;53.592;10.044;2022-11-20T15:20:45;3.60;99.90
354;DHT22;165;53.592;10.044;2022-11-20T15:23:13;3.40;99.90
354;DHT22;165;53.592;10.044;2022-11-20T15:25:40;3.50;99.90
354;DHT22;165;53.592;10.044;2022-11-20T15:33:17;3.50;99.90
354;DHT22;165;53.592;10.044;2022-11-20T15:35:43;3.60;99.90
354;DHT22;165;53.592;10.044;2022-11-20T15:38:10;3.60;99.90
354;DHT22;165;53.592;10.044;2022-11-20T15:40:36;3.60;99.90
354;DHT22;165;53.592;10.044;2022-11-20T15:43:01;3.60;99.90
354;DHT22;165;53.592;10.044;2022-11-20T15:45:47;3.60;99.90
354;DHT22;165;53.592;10.044;2022-11-20T15:48:23;3.60;99.90
354;DHT22;165;53.592;10.044;2022-11-20T15:50:53;3.60;99.90
354;DHT22;165;53.592;10.044;2022-11-20T15:53:20;3.50;99.90
354;DHT22;165;53.592;10.044;2022-11-20T15:55:46;3.60;99.90
354;DHT22;165;53.592;10.044;2022-11-20T15:58:11;3.60;99.90
354;DHT22;165;53.592;10.044;2022-11-20T16:00:37;3.50;99.90
354;DHT22;165;53.592;10.044;2022-11-20T16:03:03;3.60;99.90
354;DHT22;165;53.592;10.044;2022-11-20T16:05:29;3.60;99.90
354;DHT22;165;53.592;10.044;2022-11-20T16:07:54;3.50;99.90
354;DHT22;165;53.592;10.044;2022-11-20T16:10:20;3.60;99.90
354;DHT22;165;53.592;10.044;2022-11-20T16:12:45;3.60;99.90
354;DHT22;165;53.592;10.044;2022-11-20T16:15:30;3.50;99.90
354;DHT22;165;53.592;10.044;2022-11-20T16:18:14;3.50;99.90
354;DHT22;165;53.592;10.044;2022-11-20T16:20:40;3.50;99.90
354;DHT22;165;53.592;10.044;2022-11-20T16:23:06;3.50;99.90
354;DHT22;165;53.592;10.044;2022-11-20T16:25:32;3.40;99.90
354;DHT22;165;53.592;10.044;2022-11-20T16:28:00;3.50;99.90
354;DHT22;165;53.592;10.044;2022-11-20T16:30:31;3.50;99.90
354;DHT22;165;53.592;10.044;2022-11-20T16:32:57;3.40;99.90
354;DHT22;165;53.592;10.044;2022-11-20T16:35:22;3.50;99.90
354;DHT22;165;53.592;10.044;2022-11-20T16:37:48;3.50;99.90
354;DHT22;165;53.592;10.044;2022-11-20T16:40:13;3.50;99.90
354;DHT22;165;53.592;10.044;2022-11-20T16:42:39;3.40;99.90
354;DHT22;165;53.592;10.044;2022-11-20T16:45:05;3.40;99.90
354;DHT22;165;53.592;10.044;2022-11-20T16:47:34;3.50;99.90
354;DHT22;165;53.592;10.044;2022-11-20T16:50:01;3.50;99.90
354;DHT22;165;53.592;10.044;2022-11-20T16:52:28;3.40;99.90
354;DHT22;165;53.592;10.044;2022-11-20T16:54:54;3.40;99.90
354;DHT22;165;53.592;10.044;2022-11-20T16:57:20;3.30;99.90
354;DHT22;165;53.592;10.044;2022-11-20T16:59:45;3.30;99.90
354;DHT22;165;53.592;10.044;2022-11-20T17:02:11;3.30;99.90
354;DHT22;165;53.592;10.044;2022-11-20T17:04:36;3.30;99.90
354;DHT22;165;53.592;10.044;2022-11-20T17:07:02;3.30;99.90
354;DHT22;165;53.592;10.044;2022-11-20T17:09:28;3.30;99.90
354;DHT22;165;53.592;10.044;2022-11-20T17:11:54;3.30;99.90
354;DHT22;165;53.592;10.044;2022-11-20T17:14:21;3.30;99.90
354;DHT22;165;53.592;10.044;2022-11-20T17:16:46;3.30;99.90
354;DHT22;165;53.592;10.044;2022-11-20T17:19:13;3.30;99.90
354;DHT22;165;53.592;10.044;2022-11-20T17:21:39;3.60;99.90
354;DHT22;165;53.592;10.044;2022-11-20T17:24:11;3.30;99.90
354;DHT22;165;53.592;10.044;2022-11-20T17:26:39;3.30;99.90
354;DHT22;165;53.592;10.044;2022-11-20T17:29:07;3.30;99.90
354;DHT22;165;53.592;10.044;2022-11-20T17:31:34;3.30;99.90
354;DHT22;165;53.592;10.044;2022-11-20T17:34:01;3.20;99.90
354;DHT22;165;53.592;10.044;2022-11-20T17:36:27;3.20;99.90
354;DHT22;165;53.592;10.044;2022-11-20T17:38:54;3.20;99.90
354;DHT22;165;53.592;10.044;2022-11-20T17:41:24;3.10;99.90
354;DHT22;165;53.592;10.044;2022-11-20T17:43:55;3.10;99.90
354;DHT22;165;53.592;10.044;2022-11-20T17:46:23;3.10;99.90
354;DHT22;165;53.592;10.044;2022-11-20T17:48:50;3.10;99.90
354;DHT22;165;53.592;10.044;2022-11-20T17:51:23;3.10;99.90
354;DHT22;165;53.592;10.044;2022-11-20T17:53:52;3.10;99.90
354;DHT22;165;53.592;10.044;2022-11-20T17:56:18;3.10;99.90
354;DHT22;165;53.592;10.044;2022-11-20T17:59:07;3.10;99.90
354;DHT22;165;53.592;10.044;2022-11-20T18:01:33;3.00;99.90
354;DHT22;165;53.592;10.044;2022-11-20T18:03:59;2.80;99.90
354;DHT22;165;53.592;10.044;2022-11-20T18:06:26;2.80;99.90
354;DHT22;165;53.592;10.044;2022-11-20T18:08:52;2.70;99.90
354;DHT22;165;53.592;10.044;2022-11-20T18:15:11;2.90;99.90
354;DHT22;165;53.592;10.044;2022-11-20T18:17:37;2.80;99.90
354;DHT22;165;53.592;10.044;2022-11-20T18:20:03;2.80;99.90
354;DHT22;165;53.592;10.044;2022-11-20T18:22:28;2.70;99.90
354;DHT22;165;53.592;10.044;2022-11-20T18:24:54;2.70;99.90
354;DHT22;165;53.592;10.044;2022-11-20T18:27:20;2.70;99.90
354;DHT22;165;53.592;10.044;2022-11-20T18:29:46;2.70;99.90
354;DHT22;165;53.592;10.044;2022-11-20T18:32:13;2.70;99.90
354;DHT22;165;53.592;10.044;2022-11-20T18:34:40;2.70;99.90
354;DHT22;165;53.592;10.044;2022-11-20T18:37:05;2.70;99.90
354;DHT22;165;53.592;10.044;2022-11-20T18:39:31;2.70;99.90
354;DHT22;165;53.592;10.044;2022-11-20T18:41:57;2.80;99.90
354;DHT22;165;53.592;10.044;2022-11-20T18:44:41;2.80;99.90
354;DHT22;165;53.592;10.044;2022-11-20T18:47:18;2.80;99.90
354;DHT22;165;53.592;10.044;2022-11-20T18:49:47;2.90;99.90
354;DHT22;165;53.592;10.044;2022-11-20T18:52:16;2.90;99.90
354;DHT22;165;53.592;10.044;2022-11-20T18:54:42;2.90;99.90
354;DHT22;165;53.592;10.044;2022-11-20T18:57:07;3.00;99.90
354;DHT22;165;53.592;10.044;2022-11-20T18:59:35;3.00;99.90
354;DHT22;165;53.592;10.044;2022-11-20T19:02:00;3.00;99.90
354;DHT22;165;53.592;10.044;2022-11-20T19:04:26;3.10;99.90
354;DHT22;165;53.592;10.044;2022-11-20T19:06:52;3.10;99.90
354;DHT22;165;53.592;10.044;2022-11-20T19:09:21;3.10;99.90
354;DHT22;165;53.592;10.044;2022-11-20T19:11:47;3.10;99.90
354;DHT22;165;53.592;10.044;2022-11-20T19:14:13;3.10;99.90
354;DHT22;165;53.592;10.044;2022-11-20T19:16:38;3.10;99.90
354;DHT22;165;53.592;10.044;2022-11-20T19:19:05;3.00;99.90
354;DHT22;165;53.592;10.044;2022-11-20T19:21:31;3.00;99.90
354;DHT22;165;53.592;10.044;2022-11-20T19:23:58;2.90;99.90
354;DHT22;165;53.592;10.044;2022-11-20T19:26:24;3.00;99.90
354;DHT22;165;53.592;10.044;2022-11-20T19:28:50;3.00;99.90
354;DHT22;165;53.592;10.044;2022-11-20T19:31:19;2.90;99.90
354;DHT22;165;53.592;10.044;2022-11-20T19:33:45;2.90;99.90